NORTHEAST SUFFOLK  -  Winter Weather Advisory Winter Weather Advisory        NORTHERN NASSAU  -  Winter Weather Advisory Winter Weather Advisory        NORTHWEST SUFFOLK  -  Winter Weather Advisory Winter Weather Advisory        SOUTHEAST SUFFOLK  -  Winter Weather Advisory Winter Weather Advisory        SOUTHERN NASSAU  -  Winter Weather Advisory Winter Weather Advisory        SOUTHWEST SUFFOLK  -  Winter Weather Advisory Winter Weather Advisory      

Active alerts

Northern Nassau
  Details for Northern Nassau Winter Weather Advisory
Southern Nassau
  Details for Southern Nassau Winter Weather Advisory
Northwest Suffolk
  Details for Northwest Suffolk Winter Weather Advisory
Southwest Suffolk
  Details for Southwest Suffolk Winter Weather Advisory
Northeast Suffolk
  Details for Northeast Suffolk Winter Weather Advisory
Southeast Suffolk
  Details for Southeast Suffolk Winter Weather Advisory


WXM80 ListenWXM80 Stop

You find our weather info also at:

UK Metoffice

WeatherCloud

Weather Underground

Northeastern Weather Network

AWEKAS

Citizen Weather Observer Program (CWOP)

HAMweather, WeatherForYou, PWS Weather


Weather Underground History page Text

Daily Summary for May 11, 2017 Units:  Metric    English   Both
« Previous Day
Next Day »
Daily Weekly Monthly Yearly Custom
  High: Low: Average:
Temperature: 17.7 °C 8.4 °C 12.5 °C
Dew Point: 7.8 °C 4 °C 5.7 °C
Humidity: 82 % 43 % 64 %
Wind Speed: 8.4 km/h 0 km/h 1.9 km/h
Wind Gust: 14.5 km/h - -
Wind:- - ESE
Pressure: 1016.1 hPa 1013.1 hPa -
Precipitation: 0 mm    
Historical Graphs
 
 
Tabular Data for May 11, 2017
Time Temperature Dew Point Pressure Wind Wind Speed Wind Gust Humidity Rainfall Rate (Hourly)
00:02 11.4 °C 4.6 °C 1016.1 hPa NNE 5.8 km/h 8 km/h 63 % 0 mm
00:07 11.3 °C 4.6 °C 1016.1 hPa NNE 0.8 km/h 5.6 km/h 63 % 0 mm
00:12 11.3 °C 4.6 °C 1016.1 hPa NNE 0.8 km/h 5.6 km/h 63 % 0 mm
00:17 11.3 °C 4.5 °C 1016.1 hPa Calm     63 % 0 mm
00:22 11.3 °C 4.5 °C 1016.1 hPa NNE 0.3 km/h 3.7 km/h 63 % 0 mm
00:27 11.2 °C 4.4 °C 1016.1 hPa NNE 0.3 km/h 1.9 km/h 63 % 0 mm
00:32 11.2 °C 4.6 °C 1016.1 hPa NNE 0.2 km/h 1.9 km/h 64 % 0 mm
00:37 11.1 °C 4.8 °C 1016.1 hPa Calm   1.9 km/h 65 % 0 mm
00:42 11.1 °C 4.7 °C 1016.1 hPa Calm     65 % 0 mm
00:47 10.9 °C 4.8 °C 1016.1 hPa Calm     66 % 0 mm
00:52 10.9 °C 4.8 °C 1016.1 hPa Calm     66 % 0 mm
00:57 10.8 °C 4.9 °C 1016.1 hPa Calm     67 % 0 mm
01:02 10.7 °C 5.1 °C 1015.8 hPa Calm     68 % 0 mm
01:07 10.6 °C 4.9 °C 1015.8 hPa Calm     68 % 0 mm
01:12 10.6 °C 4.9 °C 1015.8 hPa Calm     68 % 0 mm
01:17 10.4 °C 5 °C 1015.8 hPa Calm   1.9 km/h 69 % 0 mm
01:22 10.3 °C 4.9 °C 1015.8 hPa North 2.1 km/h 5.6 km/h 69 % 0 mm
01:27 10.2 °C 4.8 °C 1015.8 hPa NNW 1.1 km/h 3.7 km/h 69 % 0 mm
01:32 10.1 °C 4.9 °C 1015.5 hPa Calm     70 % 0 mm
01:37 10 °C 5.2 °C 1015.8 hPa Calm     72 % 0 mm
01:42 9.9 °C 5.1 °C 1015.5 hPa Calm     72 % 0 mm
01:47 9.8 °C 4.9 °C 1015.8 hPa NNW 0.2 km/h 1.9 km/h 72 % 0 mm
01:52 9.7 °C 4.8 °C 1015.8 hPa NNW 0.3 km/h 1.9 km/h 72 % 0 mm
01:57 9.5 °C 4.9 °C 1015.5 hPa Calm     73 % 0 mm
02:02 9.4 °C 4.6 °C 1015.5 hPa Calm     72 % 0 mm
02:07 9.3 °C 4.7 °C 1015.5 hPa Calm     73 % 0 mm
02:12 9.3 °C 4.9 °C 1015.5 hPa Calm     74 % 0 mm
02:17 9.2 °C 4.8 °C 1015.5 hPa NNW 1.3 km/h 5.6 km/h 74 % 0 mm
02:23 9.2 °C 4.8 °C 1015.1 hPa Calm   1.9 km/h 74 % 0 mm
02:28 9.2 °C 4.8 °C 1015.1 hPa Calm     74 % 0 mm
02:33 9.2 °C 4.8 °C 1015.1 hPa Calm     74 % 0 mm
02:38 9.2 °C 4.8 °C 1014.8 hPa Calm     74 % 0 mm
02:43 9.2 °C 4.6 °C 1014.8 hPa NNW 1.4 km/h 3.2 km/h 73 % 0 mm
02:48 9.1 °C 4.3 °C 1015.1 hPa Calm     72 % 0 mm
02:52 9.2 °C 4.4 °C 1014.8 hPa Calm     72 % 0 mm
02:57 9.2 °C 4.4 °C 1015.1 hPa Calm     72 % 0 mm
03:02 9.2 °C 4.4 °C 1015.1 hPa NNW 0.2 km/h 1.9 km/h 72 % 0 mm
03:07 9.2 °C 4.6 °C 1015.1 hPa WNW 0.5 km/h 5.6 km/h 73 % 0 mm
03:13 9.2 °C 4.6 °C 1015.1 hPa Calm     73 % 0 mm
03:18 9.2 °C 4.8 °C 1015.1 hPa Calm   3.7 km/h 74 % 0 mm
03:23 9.3 °C 4.7 °C 1015.5 hPa NW 0.5 km/h 5.6 km/h 73 % 0 mm
03:28 9.3 °C 4.7 °C 1015.1 hPa NW 1.3 km/h 5.6 km/h 73 % 0 mm
03:33 9.3 °C 4.7 °C 1015.5 hPa NW 1.3 km/h 3.7 km/h 73 % 0 mm
03:34 9.3 °C 4.7 °C 1015.5 hPa NW 0.8 km/h 4.8 km/h 73 % 0 mm
03:39 9.4 °C 4.6 °C 1015.5 hPa NW 0.3 km/h 3.7 km/h 72 % 0 mm
03:40 9.4 °C 4.6 °C 1015.5 hPa NW 0.3 km/h 3.7 km/h 72 % 0 mm
03:45 9.4 °C 4.4 °C 1015.5 hPa NW 0.2 km/h 3.7 km/h 71 % 0 mm
03:50 9.4 °C 4.2 °C 1015.5 hPa Calm     70 % 0 mm
03:52 9.4 °C 4.2 °C 1015.5 hPa NNW 2.9 km/h 5.6 km/h 70 % 0 mm
03:57 9.4 °C 4 °C 1015.5 hPa Calm     69 % 0 mm
04:02 9.4 °C 4.2 °C 1015.5 hPa Calm     70 % 0 mm
04:07 9.4 °C 4.2 °C 1015.5 hPa NNW 2.6 km/h 5.6 km/h 70 % 0 mm
04:12 9.3 °C 4.6 °C 1015.5 hPa NNW 1.3 km/h 3.2 km/h 72 % 0 mm
04:17 9.3 °C 4.7 °C 1015.1 hPa Calm     73 % 0 mm
04:22 9.3 °C 4.5 °C 1015.5 hPa Calm     72 % 0 mm
04:27 9.2 °C 4.4 °C 1015.5 hPa NNW 2.3 km/h 5.6 km/h 72 % 0 mm
04:32 9.2 °C 4.2 °C 1015.5 hPa NNW 0.6 km/h 3.7 km/h 71 % 0 mm
04:37 9.1 °C 4.3 °C 1015.5 hPa North 3.5 km/h 5.6 km/h 72 % 0 mm
04:42 9.1 °C 4.7 °C 1015.5 hPa North 1.9 km/h 5.6 km/h 74 % 0 mm
04:47 9 °C 4.8 °C 1015.5 hPa North 2.1 km/h 5.6 km/h 75 % 0 mm
04:52 9 °C 4.6 °C 1015.5 hPa North 1.4 km/h 3.7 km/h 74 % 0 mm
04:57 8.9 °C 4.6 °C 1015.5 hPa North 0.6 km/h 3.7 km/h 74 % 0 mm
05:02 8.9 °C 4.7 °C 1015.5 hPa Calm   1.9 km/h 75 % 0 mm
05:07 8.9 °C 4.5 °C 1015.5 hPa North 0.8 km/h 3.7 km/h 74 % 0 mm
05:12 8.9 °C 4.5 °C 1015.5 hPa North 0.2 km/h 1.9 km/h 74 % 0 mm
05:17 8.9 °C 4.7 °C 1015.5 hPa North 2.3 km/h 5.6 km/h 75 % 0 mm
05:22 8.8 °C 4.8 °C 1015.5 hPa North 1 km/h 1.9 km/h 76 % 0 mm
05:27 8.8 °C 4.8 °C 1015.5 hPa Calm   1.9 km/h 76 % 0 mm
05:32 8.7 °C 4.9 °C 1015.5 hPa North 0.5 km/h 3.2 km/h 77 % 0 mm
05:37 8.7 °C 5.1 °C 1015.5 hPa North 2.1 km/h 3.7 km/h 78 % 0 mm
05:42 8.6 °C 4.8 °C 1015.5 hPa North 2.1 km/h 3.7 km/h 77 % 0 mm
05:47 8.6 °C 4.8 °C 1015.8 hPa North 0.3 km/h   77 % 0 mm
05:52 8.6 °C 4.8 °C 1015.8 hPa North 0.3 km/h 1.9 km/h 77 % 0 mm
05:57 8.5 °C 4.7 °C 1015.8 hPa North 1.8 km/h 3.2 km/h 77 % 0 mm
06:02 8.4 °C 4.7 °C 1015.8 hPa North 0.6 km/h 1.9 km/h 77 % 0 mm
06:07 8.4 °C 4.7 °C 1015.8 hPa Calm     77 % 0 mm
06:12 8.4 °C 4.6 °C 1015.8 hPa Calm     77 % 0 mm
06:17 8.4 °C 4.8 °C 1015.8 hPa Calm     78 % 0 mm
06:22 8.4 °C 5.1 °C 1015.8 hPa Calm     80 % 0 mm
06:27 8.4 °C 5.4 °C 1015.8 hPa North 0.8 km/h 5.6 km/h 81 % 0 mm
06:32 8.5 °C 5.4 °C 1015.8 hPa NNW 1 km/h 5.6 km/h 81 % 0 mm
06:38 8.6 °C 5.7 °C 1015.8 hPa North 3.5 km/h 5.6 km/h 82 % 0 mm
06:43 8.8 °C 5.7 °C 1015.8 hPa NNW 2.7 km/h 5.6 km/h 81 % 0 mm
06:48 9 °C 5.7 °C 1015.8 hPa NNW 0.6 km/h 4.8 km/h 80 % 0 mm
06:53 9.2 °C 5.7 °C 1015.8 hPa NNW 0.5 km/h 5.6 km/h 79 % 0 mm
06:58 9.4 °C 5.6 °C 1015.8 hPa North 4.3 km/h 7.4 km/h 77 % 0 mm
07:03 9.7 °C 5.6 °C 1015.5 hPa NNW 1.4 km/h 3.7 km/h 76 % 0 mm
07:08 9.9 °C 5.9 °C 1015.5 hPa North 0.5 km/h 1.9 km/h 76 % 0 mm
07:13 10.2 °C 6.1 °C 1015.5 hPa NNE 5.1 km/h 6.4 km/h 76 % 0 mm
07:18 10.5 °C 6.3 °C 1015.5 hPa NE 0.2 km/h 1.9 km/h 75 % 0 mm
07:23 10.8 °C 6.3 °C 1015.5 hPa ENE 0.2 km/h 1.9 km/h 74 % 0 mm
07:28 11 °C 6.6 °C 1015.5 hPa NNE 1.1 km/h 4.8 km/h 74 % 0 mm
07:33 11.1 °C 6.3 °C 1015.1 hPa NNE 1.9 km/h 5.6 km/h 72 % 0 mm
07:38 11.2 °C 6.8 °C 1015.5 hPa North 0.8 km/h 5.6 km/h 74 % 0 mm
07:43 11.3 °C 6.4 °C 1015.5 hPa North 2.7 km/h 5.6 km/h 72 % 0 mm
07:48 11.3 °C 6.6 °C 1015.1 hPa NNW 1.4 km/h 3.7 km/h 73 % 0 mm
07:53 11.4 °C 6.9 °C 1015.1 hPa NNW 1.3 km/h 3.7 km/h 74 % 0 mm
07:58 11.5 °C 7.2 °C 1015.5 hPa NNW 2.1 km/h 4.8 km/h 75 % 0 mm
08:03 11.6 °C 6.7 °C 1015.1 hPa NNW 2.1 km/h 5.6 km/h 72 % 0 mm
08:08 11.7 °C 7.1 °C 1015.1 hPa North 0.5 km/h 1.9 km/h 73 % 0 mm
08:13 11.8 °C 7.2 °C 1015.1 hPa North 3.4 km/h 5.6 km/h 73 % 0 mm
08:18 12 °C 7.1 °C 1015.1 hPa North 2.1 km/h 3.7 km/h 72 % 0 mm
08:23 12.1 °C 7 °C 1015.1 hPa NNE 2.4 km/h 5.6 km/h 71 % 0 mm
08:28 12.2 °C 6.9 °C 1015.5 hPa NNE 3.1 km/h 3.7 km/h 70 % 0 mm
08:34 12.3 °C 7.2 °C 1015.5 hPa North 3.9 km/h 5.6 km/h 71 % 0 mm
08:39 12.3 °C 6.9 °C 1015.5 hPa NNE 3.1 km/h 6.4 km/h 70 % 0 mm
08:44 12.3 °C 6.6 °C 1015.1 hPa ENE 2.7 km/h 5.6 km/h 68 % 0 mm
08:49 12.2 °C 6.2 °C 1015.5 hPa NE 4.8 km/h 7.4 km/h 67 % 0 mm
08:54 12.1 °C 6.3 °C 1015.5 hPa NE 4.3 km/h 5.6 km/h 68 % 0 mm
08:59 12 °C 6.5 °C 1015.1 hPa NNE 2.9 km/h 5.6 km/h 69 % 0 mm
09:04 12.2 °C 7.3 °C 1015.1 hPa NNE 1.8 km/h 8 km/h 72 % 0 mm
09:09 12.4 °C 7.3 °C 1015.1 hPa NE 3.7 km/h 5.6 km/h 71 % 0 mm
09:14 12.5 °C 6.6 °C 1015.1 hPa ENE 4.3 km/h 8 km/h 67 % 0 mm
09:19 12.5 °C 6.6 °C 1015.1 hPa NE 2.9 km/h 6.4 km/h 67 % 0 mm
09:24 12.6 °C 6.4 °C 1015.1 hPa ENE 4.8 km/h 6.4 km/h 66 % 0 mm
09:29 12.6 °C 6.4 °C 1015.1 hPa ENE 2.7 km/h 4.8 km/h 66 % 0 mm
09:34 12.6 °C 6.7 °C 1015.1 hPa ENE 1.9 km/h 5.6 km/h 67 % 0 mm
09:39 12.6 °C 6.4 °C 1015.1 hPa NE 4.3 km/h 7.4 km/h 66 % 0 mm
09:44 12.8 °C 7.2 °C 1014.8 hPa ENE 3.9 km/h 5.6 km/h 69 % 0 mm
09:45 12.8 °C 6.8 °C 1014.8 hPa ENE 3.1 km/h 5.6 km/h 67 % 0 mm
09:50 12.9 °C 6.7 °C 1014.8 hPa ENE 5.6 km/h 9.3 km/h 66 % 0 mm
09:55 12.8 °C 6.4 °C 1014.8 hPa ENE 3.1 km/h 5.6 km/h 65 % 0 mm
10:00 13 °C 6.8 °C 1014.8 hPa ENE 5.5 km/h 8 km/h 66 % 0 mm
10:05 13.1 °C 6.2 °C 1014.8 hPa ENE 6.9 km/h 11.1 km/h 63 % 0 mm
10:10 13.2 °C 6.6 °C 1014.8 hPa ENE 4.5 km/h 6.4 km/h 64 % 0 mm
10:15 13.3 °C 6.4 °C 1014.8 hPa ENE 5.1 km/h 13 km/h 63 % 0 mm
10:20 13.4 °C 7 °C 1014.8 hPa NE 4.5 km/h 11.1 km/h 65 % 0 mm
10:25 13.8 °C 7.8 °C 1014.8 hPa NE 2.1 km/h 7.4 km/h 67 % 0 mm
10:30 14.1 °C 6.9 °C 1014.8 hPa ENE 7.4 km/h 9.3 km/h 62 % 0 mm
10:35 14.1 °C 6.9 °C 1015.1 hPa NE 2.7 km/h 5.6 km/h 62 % 0 mm
10:40 14.2 °C 7 °C 1015.1 hPa ENE 5.3 km/h 8 km/h 62 % 0 mm
10:45 14.3 °C 7.8 °C 1015.1 hPa East 1.8 km/h 4.8 km/h 65 % 0 mm
10:50 14.7 °C 6.8 °C 1015.1 hPa NE 7.9 km/h 9.3 km/h 59 % 0 mm
10:55 14.9 °C 7.5 °C 1015.1 hPa ENE 0.3 km/h 5.6 km/h 61 % 0 mm
10:56 14.9 °C 7.5 °C 1015.1 hPa ENE 2.4 km/h 4.8 km/h 61 % 0 mm
11:01 15.1 °C 6.3 °C 1015.1 hPa ENE 6.3 km/h 11.1 km/h 56 % 0 mm
11:06 15.2 °C 7.7 °C 1014.8 hPa ENE 3.2 km/h 5.6 km/h 61 % 0 mm
11:11 15.6 °C 7.6 °C 1014.8 hPa NE 5.1 km/h 11.1 km/h 59 % 0 mm
11:16 15.9 °C 7.4 °C 1014.8 hPa ENE 5.5 km/h 7.4 km/h 57 % 0 mm
11:21 16.1 °C 7.1 °C 1014.8 hPa ENE 2.1 km/h 9.3 km/h 55 % 0 mm
11:26 16.3 °C 6.7 °C 1015.1 hPa ENE 4.5 km/h 13 km/h 53 % 0 mm
11:31 16.4 °C 6 °C 1015.1 hPa ENE 1.1 km/h 1.9 km/h 50 % 0 mm
11:37 16.6 °C 7 °C 1014.8 hPa NE 0.8 km/h 3.7 km/h 53 % 0 mm
11:42 16.7 °C 6.8 °C 1014.8 hPa NE 3.5 km/h 5.6 km/h 52 % 0 mm
11:47 16.8 °C 6.8 °C 1014.8 hPa ENE 1.8 km/h 5.6 km/h 52 % 0 mm
11:52 16.8 °C 5.4 °C 1014.8 hPa ENE 1.3 km/h 4.8 km/h 47 % 0 mm
11:57 16.6 °C 5.8 °C 1014.8 hPa ENE 5.8 km/h 9.3 km/h 49 % 0 mm
12:02 16.4 °C 5.4 °C 1014.4 hPa ENE 6 km/h 6.4 km/h 48 % 0 mm
12:07 16.3 °C 6.4 °C 1014.4 hPa ENE 1.3 km/h 4.8 km/h 52 % 0 mm
12:12 16.1 °C 5.1 °C 1014.4 hPa NE 4.2 km/h 7.4 km/h 48 % 0 mm
12:17 16.1 °C 5.3 °C 1014.4 hPa NE 1.1 km/h 3.7 km/h 49 % 0 mm
12:22 16.1 °C 5.4 °C 1014.1 hPa NE 5.3 km/h 7.4 km/h 49 % 0 mm
12:27 16.3 °C 6.7 °C 1014.1 hPa NE 0.8 km/h 3.7 km/h 53 % 0 mm
12:32 16.7 °C 6.5 °C 1014.1 hPa ENE 1.9 km/h 3.7 km/h 51 % 0 mm
12:37 16.8 °C 6.6 °C 1014.1 hPa ENE 1.9 km/h 3.7 km/h 51 % 0 mm
12:42 17.1 °C 6.6 °C 1014.1 hPa North 5 km/h 5.6 km/h 50 % 0 mm
12:47 17.3 °C 6.5 °C 1014.1 hPa NE 1 km/h 5.6 km/h 49 % 0 mm
12:52 17.2 °C 4.8 °C 1014.1 hPa ENE 4 km/h 5.6 km/h 44 % 0 mm
12:58 17.1 °C 5.1 °C 1014.1 hPa ENE 6.1 km/h 6.4 km/h 45 % 0 mm
12:59 17.1 °C 5 °C 1014.1 hPa ENE 5.3 km/h 7.4 km/h 45 % 0 mm
13:04 16.9 °C 5.6 °C 1014.1 hPa ENE 6.1 km/h 11.1 km/h 47 % 0 mm
13:09 17 °C 6.2 °C 1014.1 hPa ENE 5.1 km/h 7.4 km/h 49 % 0 mm
13:14 17.1 °C 6.3 °C 1014.1 hPa ENE 5.1 km/h 6.4 km/h 49 % 0 mm
13:19 17.2 °C 6.9 °C 1013.8 hPa ENE 0.6 km/h 5.6 km/h 51 % 0 mm
13:24 17.4 °C 7.2 °C 1013.8 hPa ENE 4.5 km/h 11.3 km/h 51 % 0 mm
13:29 17.4 °C 6.3 °C 1013.8 hPa ENE 3.2 km/h 7.4 km/h 48 % 0 mm
13:34 17.5 °C 6.7 °C 1013.8 hPa ENE 2.9 km/h 7.4 km/h 49 % 0 mm
13:39 17.7 °C 6.2 °C 1013.8 hPa ENE 3.5 km/h 4.8 km/h 47 % 0 mm
13:44 17.6 °C 6.2 °C 1013.8 hPa NE 7.1 km/h 11.1 km/h 47 % 0 mm
13:49 17.6 °C 6.4 °C 1013.8 hPa ENE 3.4 km/h 11.1 km/h 48 % 0 mm
13:54 17.5 °C 5.4 °C 1013.8 hPa NE 4.8 km/h 11.1 km/h 45 % 0 mm
13:59 17.5 °C 5.4 °C 1013.8 hPa ENE 8.4 km/h 11.1 km/h 45 % 0 mm
14:04 17.4 °C 5.7 °C 1013.8 hPa ENE 6.3 km/h 11.3 km/h 46 % 0 mm
14:10 17.5 °C 5.4 °C 1013.8 hPa ENE 6 km/h 8 km/h 45 % 0 mm
14:15 17.5 °C 5.7 °C 1013.4 hPa NE 6 km/h 9.3 km/h 46 % 0 mm
14:20 17.6 °C 5.8 °C 1013.4 hPa ENE 3.5 km/h 7.4 km/h 46 % 0 mm
14:25 17.4 °C 4.7 °C 1013.8 hPa ENE 0.3 km/h 1.9 km/h 43 % 0 mm
14:30 17.3 °C 4.6 °C 1013.8 hPa NE 2.4 km/h 5.6 km/h 43 % 0 mm
14:35 17.1 °C 5.3 °C 1013.4 hPa ENE 0.5 km/h 3.2 km/h 46 % 0 mm
14:40 16.8 °C 4.8 °C 1013.4 hPa NE 3.5 km/h 5.6 km/h 45 % 0 mm
14:45 16.6 °C 4.9 °C 1013.4 hPa ENE 3.1 km/h 7.4 km/h 46 % 0 mm
14:50 16.6 °C 6.1 °C 1013.4 hPa ENE 2.6 km/h 3.7 km/h 50 % 0 mm
14:55 16.7 °C 5.6 °C 1013.4 hPa North 2.6 km/h 5.6 km/h 48 % 0 mm
15:00 16.6 °C 5.2 °C 1013.4 hPa NE 1.6 km/h 5.6 km/h 47 % 0 mm
15:05 16.7 °C 5.3 °C 1013.4 hPa NNE 3.2 km/h 5.6 km/h 47 % 0 mm
15:10 16.6 °C 5.6 °C 1013.4 hPa NNE 3.4 km/h 5.6 km/h 48 % 0 mm
15:15 16.6 °C 5.6 °C 1013.4 hPa NNE 2.4 km/h 4.8 km/h 48 % 0 mm
15:20 16.5 °C 5.7 °C 1013.4 hPa NNE 3.2 km/h 5.6 km/h 49 % 0 mm
15:25 16.4 °C 5.4 °C 1013.4 hPa ENE 1.3 km/h 5.6 km/h 48 % 0 mm
15:30 16.3 °C 5.6 °C 1013.4 hPa ENE 2.3 km/h 7.4 km/h 49 % 0 mm
15:35 16.1 °C 6.2 °C 1013.4 hPa ENE 3.1 km/h 7.4 km/h 52 % 0 mm
15:40 15.9 °C 5.8 °C 1013.4 hPa ENE 4.3 km/h 8 km/h 51 % 0 mm
15:45 15.8 °C 6.2 °C 1013.8 hPa NNE 3.7 km/h 9.3 km/h 53 % 0 mm
15:50 15.7 °C 6.9 °C 1013.4 hPa ENE 2.1 km/h 3.7 km/h 56 % 0 mm
15:55 15.6 °C 5.7 °C 1013.4 hPa SSE 8.4 km/h 13 km/h 52 % 0 mm
16:00 15.4 °C 5.6 °C 1013.4 hPa SE 5.6 km/h 11.1 km/h 52 % 0 mm
16:05 15.4 °C 5.8 °C 1013.4 hPa SE 3.1 km/h 4.8 km/h 53 % 0 mm
16:10 15.4 °C 6.2 °C 1013.8 hPa Calm   1.9 km/h 54 % 0 mm
16:15 15.5 °C 5.9 °C 1013.4 hPa Calm   1.9 km/h 53 % 0 mm
16:20 15.6 °C 5.7 °C 1013.1 hPa SSE 4.5 km/h 7.4 km/h 52 % 0 mm
16:25 15.6 °C 6 °C 1013.4 hPa SE 2.3 km/h 5.6 km/h 53 % 0 mm
16:30 15.6 °C 5.7 °C 1013.4 hPa SE 5.8 km/h 7.4 km/h 52 % 0 mm
16:35 15.6 °C 6 °C 1013.4 hPa SSE 0.2 km/h 1.9 km/h 53 % 0 mm
16:40 15.6 °C 6.3 °C 1013.4 hPa SSE 4.5 km/h 9.3 km/h 54 % 0 mm
16:45 15.7 °C 6.7 °C 1013.1 hPa SE 1.4 km/h 4.8 km/h 55 % 0 mm
16:50 15.6 °C 6.6 °C 1013.1 hPa Calm     55 % 0 mm
16:55 15.7 °C 6.4 °C 1013.4 hPa Calm     54 % 0 mm
17:01 15.7 °C 6.4 °C 1013.1 hPa Calm   5.6 km/h 54 % 0 mm
17:06 15.7 °C 6.4 °C 1013.4 hPa Calm   11.3 km/h 54 % 0 mm
17:11 15.7 °C 6.2 °C 1013.4 hPa Calm   3.2 km/h 53 % 0 mm
17:16 15.7 °C 5.9 °C 1013.4 hPa SSE 3.2 km/h 8 km/h 52 % 0 mm
17:21 15.7 °C 6.2 °C 1013.4 hPa SE 1.6 km/h 8 km/h 53 % 0 mm
17:26 15.7 °C 6.4 °C 1013.4 hPa SE 1.3 km/h 1.9 km/h 54 % 0 mm
17:31 15.6 °C 6.6 °C 1013.4 hPa SE 1 km/h 1.9 km/h 55 % 0 mm
17:36 15.6 °C 6 °C 1013.8 hPa SE 0.6 km/h 3.7 km/h 53 % 0 mm
17:41 15.6 °C 6.6 °C 1013.8 hPa SE 3.2 km/h 8 km/h 55 % 0 mm
17:46 15.5 °C 5.9 °C 1013.8 hPa SE 4.8 km/h 14.5 km/h 53 % 0 mm
17:51 15.4 °C 5.8 °C 1013.8 hPa SE 8 km/h 12.9 km/h 53 % 0 mm
17:56 15.2 °C 5.7 °C 1013.4 hPa SE 1.6 km/h 9.7 km/h 53 % 0 mm
18:01 15.1 °C 5.9 °C 1013.4 hPa SSE 5 km/h 9.3 km/h 54 % 0 mm
18:06 15 °C 6.3 °C 1013.4 hPa SE 4.3 km/h 11.1 km/h 56 % 0 mm
18:11 14.9 °C 5.9 °C 1013.8 hPa SE 4.7 km/h 7.4 km/h 55 % 0 mm
18:16 14.8 °C 5.8 °C 1013.8 hPa SSE 2.4 km/h 11.1 km/h 55 % 0 mm
18:21 14.7 °C 6 °C 1013.8 hPa SSE 3.7 km/h 8 km/h 56 % 0 mm
18:26 14.6 °C 5.7 °C 1013.8 hPa SE 4.2 km/h 11.1 km/h 55 % 0 mm
18:31 14.5 °C 6.1 °C 1014.1 hPa SE 1.3 km/h 3.7 km/h 57 % 0 mm
18:36 14.3 °C 5.7 °C 1014.1 hPa SE 3.5 km/h 11.3 km/h 56 % 0 mm
18:41 14.3 °C 5.9 °C 1014.1 hPa SE 1.9 km/h 5.6 km/h 57 % 0 mm
18:46 14.2 °C 6 °C 1014.1 hPa SE 2.3 km/h 8 km/h 58 % 0 mm
18:51 14.1 °C 5.7 °C 1014.1 hPa SSE 1.8 km/h 5.6 km/h 57 % 0 mm
18:56 13.9 °C 6.1 °C 1013.8 hPa SE 3.2 km/h 8 km/h 59 % 0 mm
19:01 13.8 °C 5.7 °C 1014.1 hPa SSE 4.5 km/h 7.4 km/h 58 % 0 mm
19:06 13.7 °C 5.8 °C 1014.1 hPa SE 0.5 km/h 3.7 km/h 59 % 0 mm
19:12 13.7 °C 5.8 °C 1014.1 hPa SE 4 km/h 9.3 km/h 59 % 0 mm
19:17 13.6 °C 5.9 °C 1014.1 hPa SE 2.6 km/h 3.2 km/h 60 % 0 mm
19:22 13.5 °C 5.9 °C 1014.1 hPa Calm   7.4 km/h 60 % 0 mm
19:27 13.3 °C 5.7 °C 1014.4 hPa SE 3.2 km/h 5.6 km/h 60 % 0 mm
19:32 13.2 °C 5.8 °C 1014.4 hPa SSE 4 km/h 6.4 km/h 61 % 0 mm
19:37 13.2 °C 6.1 °C 1014.4 hPa SSE 2.7 km/h 3.7 km/h 62 % 0 mm
19:42 13.1 °C 6 °C 1014.4 hPa SSE 1.3 km/h 3.7 km/h 62 % 0 mm
19:47 13 °C 6.1 °C 1014.4 hPa SE 3.2 km/h 5.6 km/h 63 % 0 mm
19:52 12.8 °C 5.7 °C 1014.4 hPa SSE 2.1 km/h 3.7 km/h 62 % 0 mm
19:57 12.7 °C 5.8 °C 1014.4 hPa SE 1.3 km/h 5.6 km/h 63 % 0 mm
20:02 12.6 °C 5.7 °C 1014.4 hPa SSE 2.1 km/h 5.6 km/h 63 % 0 mm
20:07 12.4 °C 5.6 °C 1014.4 hPa SE 2.1 km/h 5.6 km/h 63 % 0 mm
20:13 12.3 °C 5.7 °C 1014.4 hPa SSE 2.1 km/h 4.8 km/h 64 % 0 mm
20:18 12.2 °C 5.6 °C 1014.4 hPa SSE 0.3 km/h 3.7 km/h 64 % 0 mm
20:23 12.1 °C 5.5 °C 1014.4 hPa Calm     64 % 0 mm
20:28 11.9 °C 5.6 °C 1014.4 hPa SSE 1.6 km/h 5.6 km/h 65 % 0 mm
20:33 11.8 °C 5.4 °C 1014.4 hPa SSE 3.5 km/h 5.6 km/h 65 % 0 mm
20:38 11.7 °C 5.5 °C 1014.8 hPa Calm     66 % 0 mm
20:43 11.7 °C 5.5 °C 1014.4 hPa Calm     66 % 0 mm
20:48 11.6 °C 5.6 °C 1014.4 hPa SSE 0.2 km/h 1.9 km/h 67 % 0 mm
20:53 11.4 °C 5.5 °C 1014.4 hPa SSE 0.3 km/h 1.9 km/h 67 % 0 mm
20:58 11.3 °C 5.6 °C 1014.4 hPa SSE 2.6 km/h 4.8 km/h 68 % 0 mm
21:03 11.2 °C 5.6 °C 1014.4 hPa Calm     68 % 0 mm
21:08 11.1 °C 5.6 °C 1014.4 hPa Calm   1.9 km/h 69 % 0 mm
21:13 11.1 °C 5.6 °C 1014.8 hPa Calm     69 % 0 mm
21:18 11 °C 5.5 °C 1014.8 hPa Calm     69 % 0 mm
21:23 10.9 °C 5.5 °C 1014.8 hPa Calm   1.9 km/h 69 % 0 mm
21:28 10.8 °C 5.8 °C 1014.8 hPa SSE 0.8 km/h 3.7 km/h 71 % 0 mm
21:33 10.7 °C 5.7 °C 1014.8 hPa Calm   1.9 km/h 71 % 0 mm
21:38 10.6 °C 5.8 °C 1014.8 hPa SSE 1.9 km/h 1.9 km/h 72 % 0 mm
21:44 10.5 °C 5.7 °C 1014.8 hPa Calm   3.7 km/h 72 % 0 mm
21:49 10.5 °C 5.7 °C 1014.8 hPa SSE 1.4 km/h 5.6 km/h 72 % 0 mm
21:54 10.4 °C 5.6 °C 1014.8 hPa Calm     72 % 0 mm
21:59 10.4 °C 5.6 °C 1014.8 hPa Calm     72 % 0 mm
22:04 10.4 °C 5.8 °C 1015.1 hPa Calm     73 % 0 mm
22:09 10.3 °C 5.7 °C 1015.1 hPa SSE 0.3 km/h 1.9 km/h 73 % 0 mm
22:14 10.3 °C 5.7 °C 1015.1 hPa SSE 0.2 km/h 3.7 km/h 73 % 0 mm
22:19 10.2 °C 5.8 °C 1015.1 hPa Calm   5.6 km/h 74 % 0 mm
22:24 10.2 °C 5.8 °C 1015.1 hPa SE 0.2 km/h 1.9 km/h 74 % 0 mm
22:29 10.2 °C 5.7 °C 1015.1 hPa Calm     74 % 0 mm
22:34 10.1 °C 5.7 °C 1015.5 hPa Calm     74 % 0 mm
22:39 10.1 °C 5.6 °C 1015.5 hPa Calm   1.9 km/h 74 % 0 mm
22:45 10 °C 5.8 °C 1015.8 hPa Calm     75 % 0 mm
22:50 9.9 °C 5.7 °C 1015.5 hPa Calm     75 % 0 mm
22:55 9.8 °C 5.6 °C 1015.5 hPa Calm     75 % 0 mm
23:00 9.7 °C 5.7 °C 1015.5 hPa Calm     76 % 0 mm
23:05 9.6 °C 5.8 °C 1015.5 hPa Calm     77 % 0 mm
23:10 9.5 °C 5.8 °C 1015.5 hPa Calm     78 % 0 mm
23:15 9.4 °C 5.7 °C 1015.5 hPa Calm     78 % 0 mm
23:20 9.3 °C 5.7 °C 1015.8 hPa Calm     78 % 0 mm
23:25 9.2 °C 5.6 °C 1015.5 hPa Calm     78 % 0 mm
23:30 9.2 °C 5.6 °C 1015.5 hPa Calm     78 % 0 mm
23:35 9.1 °C 5.5 °C 1015.5 hPa Calm     78 % 0 mm
23:40 9 °C 5.6 °C 1015.8 hPa Calm     79 % 0 mm
23:45 8.9 °C 5.5 °C 1015.8 hPa Calm     79 % 0 mm
23:55 8.8 °C 5.3 °C 1015.8 hPa Calm     79 % 0 mm
Crab Meadow Weather
Compliments of Weather Underground - 3 mb

Script developed by  Jim McMurry - jmcmurry@mwt.net Adapted for the template by  Wim van der Kuil - Leuven-Template.eu

Recycling: Americans throw away 25,000,000,000 Styrofoam coffee cups every year.